createdAt,value
2018-10-19T00:00:11.875Z,20.47
2018-10-19T00:01:43.444Z,20.43
2018-10-19T00:03:15.122Z,20.41
2018-10-19T00:04:46.591Z,20.42
2018-10-19T00:06:18.172Z,20.41
2018-10-19T00:07:49.738Z,20.62
2018-10-19T00:09:21.312Z,20.67
2018-10-19T00:10:53.131Z,20.59
2018-10-19T00:12:24.459Z,20.42
2018-10-19T00:13:56.132Z,20.52
2018-10-19T00:15:27.606Z,20.43
2018-10-19T00:16:59.400Z,20.47
2018-10-19T00:18:30.752Z,20.50
2018-10-19T00:20:02.326Z,20.42
2018-10-19T00:21:33.900Z,20.42
2018-10-19T00:23:05.491Z,20.43
2018-10-19T00:24:37.047Z,20.43
2018-10-19T00:26:08.620Z,20.47
2018-10-19T00:27:40.194Z,20.42
2018-10-19T00:29:11.818Z,20.59
2018-10-19T00:30:43.342Z,20.52
2018-10-19T00:32:15.015Z,20.54
2018-10-19T00:35:18.062Z,20.48
2018-10-19T00:36:49.659Z,20.55
2018-10-19T00:38:21.209Z,20.52
2018-10-19T00:39:52.782Z,20.50
2018-10-19T00:41:24.356Z,20.52
2018-10-19T00:42:55.930Z,20.55
2018-10-19T00:44:27.504Z,20.55
2018-10-19T00:45:59.079Z,20.52
2018-10-19T00:47:30.654Z,20.57
2018-10-19T00:49:02.224Z,20.57
2018-10-19T00:50:33.897Z,20.59
2018-10-19T00:52:05.369Z,20.57
2018-10-19T00:53:36.942Z,20.57
2018-10-19T00:55:08.515Z,20.66
2018-10-19T00:56:40.089Z,20.67
2018-10-19T00:58:11.663Z,20.69
2018-10-19T00:59:43.235Z,20.62
2018-10-19T01:01:14.809Z,20.67
2018-10-19T01:02:46.382Z,20.66
2018-10-19T01:04:17.957Z,20.72
2018-10-19T01:05:49.530Z,20.87
2018-10-19T01:07:21.103Z,20.88
2018-10-19T01:08:52.826Z,20.76
2018-10-19T01:10:24.252Z,20.74
2018-10-19T01:11:55.826Z,20.70
2018-10-19T01:13:27.400Z,20.64
2018-10-19T01:14:59.023Z,20.77
2018-10-19T01:16:30.547Z,20.80
2018-10-19T01:18:02.122Z,20.72
2018-10-19T01:19:33.700Z,20.82
2018-10-19T01:21:05.276Z,20.73
2018-10-19T01:22:36.845Z,20.79
2018-10-19T01:24:08.418Z,20.85
2018-10-19T01:25:40.026Z,20.87
2018-10-19T01:27:11.720Z,20.85
2018-10-19T01:28:43.140Z,20.87
2018-10-19T01:30:14.711Z,20.69
2018-10-19T01:31:46.286Z,20.55
2018-10-19T01:33:17.861Z,20.57
2018-10-19T01:34:49.434Z,20.62
2018-10-19T01:36:21.007Z,20.61
2018-10-19T01:37:52.583Z,20.57
2018-10-19T01:39:24.155Z,20.54
2018-10-19T01:40:55.749Z,20.55
2018-10-19T01:42:27.305Z,20.61
2018-10-19T01:43:58.881Z,20.62
2018-10-19T01:45:30.551Z,20.55
2018-10-19T01:47:02.047Z,20.59
2018-10-19T01:48:33.600Z,20.73
2018-10-19T01:50:05.172Z,20.74
2018-10-19T01:51:36.747Z,20.55
2018-10-19T01:53:08.382Z,20.57
2018-10-19T01:54:39.911Z,20.59
2018-10-19T01:56:11.469Z,20.54
2018-10-19T01:57:43.043Z,20.54
2018-10-19T01:59:14.662Z,20.59
2018-10-19T02:00:46.193Z,20.58
2018-10-19T02:02:17.763Z,20.58
2018-10-19T02:03:49.444Z,20.57
2018-10-19T02:05:20.911Z,20.58
2018-10-19T02:06:52.788Z,20.67
2018-10-19T02:08:24.057Z,20.69
2018-10-19T02:09:55.631Z,20.58
2018-10-19T02:11:27.205Z,20.54
2018-10-19T02:12:58.778Z,20.64
2018-10-19T02:14:30.352Z,20.51
2018-10-19T02:16:01.927Z,20.43
2018-10-19T02:17:33.501Z,20.47
2018-10-19T02:19:05.074Z,20.41
2018-10-19T02:20:36.659Z,20.39
2018-10-19T02:22:08.323Z,20.43
2018-10-19T02:23:39.796Z,20.52
2018-10-19T02:25:11.369Z,20.43
2018-10-19T02:26:42.942Z,20.42
2018-10-19T02:28:14.516Z,20.41
2018-10-19T02:29:46.089Z,20.42
2018-10-19T02:31:17.664Z,20.50
2018-10-19T02:32:49.764Z,20.57
2018-10-19T02:34:20.816Z,20.43
2018-10-19T02:35:52.384Z,20.47
2018-10-19T02:37:23.958Z,20.48
2018-10-19T02:38:55.595Z,20.36
2018-10-19T02:40:27.205Z,20.43
2018-10-19T02:41:58.703Z,20.42
2018-10-19T02:43:30.254Z,20.43
2018-10-19T02:45:01.835Z,20.38
2018-10-19T02:46:33.400Z,20.39
2018-10-19T02:48:04.974Z,20.29
2018-10-19T02:49:36.548Z,20.41
2018-10-19T02:51:08.200Z,20.51
2018-10-19T02:52:39.694Z,20.38
2018-10-19T02:54:11.267Z,20.39
2018-10-19T02:55:42.842Z,20.42
2018-10-19T02:57:14.486Z,20.36
2018-10-19T02:58:46.890Z,20.39
2018-10-19T03:00:17.562Z,20.39
2018-10-19T03:01:49.138Z,20.29
2018-10-19T03:03:20.712Z,20.31
2018-10-19T03:04:52.493Z,20.35
2018-10-19T03:06:23.861Z,20.33
2018-10-19T03:07:55.432Z,20.36
2018-10-19T03:09:27.006Z,20.28
2018-10-19T03:10:58.593Z,20.35
2018-10-19T03:12:30.836Z,20.32
2018-10-19T03:14:01.837Z,20.35
2018-10-19T03:15:33.392Z,20.42
2018-10-19T03:17:05.674Z,20.32
2018-10-19T03:18:36.531Z,20.20
2018-10-19T03:20:08.108Z,20.17
2018-10-19T03:23:12.503Z,20.05
2018-10-19T03:24:43.419Z,20.20
2018-10-19T03:26:14.399Z,20.28
2018-10-19T03:27:46.027Z,20.36
2018-10-19T03:29:17.702Z,20.28
2018-10-19T03:30:49.107Z,20.36
2018-10-19T03:32:20.612Z,20.32
2018-10-19T03:33:52.185Z,20.31
2018-10-19T03:35:23.861Z,20.35
2018-10-19T03:36:55.332Z,20.33
2018-10-19T03:38:26.906Z,20.29
2018-10-19T03:39:58.480Z,20.42
2018-10-19T03:41:30.055Z,20.38
2018-10-19T03:43:01.635Z,20.29
2018-10-19T03:44:33.201Z,20.36
2018-10-19T03:46:04.776Z,20.20
2018-10-19T03:47:36.555Z,20.18
2018-10-19T03:49:07.945Z,20.17
2018-10-19T03:50:39.503Z,20.18
2018-10-19T03:52:11.073Z,20.23
2018-10-19T03:53:42.744Z,20.21
2018-10-19T03:55:14.219Z,20.20
2018-10-19T03:56:45.791Z,20.20
2018-10-19T03:58:17.367Z,20.18
2018-10-19T03:59:48.940Z,20.20
2018-10-19T04:01:20.512Z,20.11
2018-10-19T04:02:52.107Z,20.13
2018-10-19T04:04:23.661Z,20.06
2018-10-19T04:05:55.234Z,20.06
2018-10-19T04:07:26.808Z,19.99
2018-10-19T04:10:29.957Z,20.16
2018-10-19T04:12:01.635Z,20.14
2018-10-19T04:13:33.106Z,20.08
2018-10-19T04:15:04.776Z,20.18
2018-10-19T04:16:36.251Z,20.17
2018-10-19T04:18:07.826Z,20.16
2018-10-19T04:19:39.402Z,20.18
2018-10-19T04:21:11.013Z,20.16
2018-10-19T04:22:42.548Z,20.08
2018-10-19T04:24:14.123Z,20.11
2018-10-19T04:25:45.999Z,20.13
2018-10-19T04:27:17.387Z,20.06
2018-10-19T04:28:48.844Z,20.06
2018-10-19T04:30:20.522Z,20.10
2018-10-19T04:31:51.991Z,20.16
2018-10-19T04:33:23.565Z,20.10
2018-10-19T04:34:55.387Z,20.13
2018-10-19T04:36:26.713Z,20.05
2018-10-19T04:37:58.289Z,20.08
2018-10-19T04:39:29.862Z,20.06
2018-10-19T04:41:01.506Z,20.11
2018-10-19T04:42:33.009Z,20.03
2018-10-19T04:44:04.583Z,20.05
2018-10-19T04:45:36.157Z,20.01
2018-10-19T04:47:07.916Z,20.05
2018-10-19T04:48:39.491Z,20.01
2018-10-19T04:50:10.962Z,20.01
2018-10-19T04:53:14.110Z,19.96
2018-10-19T04:54:45.601Z,19.96
2018-10-19T04:56:17.176Z,20.05
2018-10-19T04:57:48.749Z,19.87
2018-10-19T04:59:20.334Z,19.88
2018-10-19T05:02:23.543Z,19.74
2018-10-19T05:05:26.763Z,19.68
2018-10-19T05:06:58.196Z,19.68
2018-10-19T05:08:29.867Z,19.54
2018-10-19T05:10:01.340Z,19.65
2018-10-19T05:11:32.915Z,19.56
2018-10-19T05:13:04.556Z,19.51
2018-10-19T05:14:36.116Z,19.68
2018-10-19T05:16:07.687Z,19.78
2018-10-19T05:17:39.442Z,19.76
2018-10-19T05:19:10.828Z,19.69
2018-10-19T05:20:42.403Z,19.69
2018-10-19T05:22:14.553Z,19.81
2018-10-19T05:23:45.541Z,19.83
2018-10-19T05:25:17.118Z,19.81
2018-10-19T05:26:48.800Z,19.63
2018-10-19T05:28:20.270Z,19.77
2018-10-19T05:29:52.024Z,19.86
2018-10-19T05:31:23.418Z,19.78
2018-10-19T05:34:26.577Z,19.83
2018-10-19T05:35:58.119Z,19.77
2018-10-19T05:37:29.701Z,19.80
2018-10-19T05:39:01.283Z,19.77
2018-10-19T05:40:32.835Z,19.83
2018-10-19T05:42:04.425Z,19.80
2018-10-19T05:43:36.042Z,19.77
2018-10-19T05:45:07.575Z,19.69
2018-10-19T05:46:39.239Z,19.74
2018-10-19T05:48:10.717Z,19.80
2018-10-19T05:51:13.868Z,19.65
2018-10-19T05:52:45.437Z,19.68
2018-10-19T05:54:17.022Z,19.63
2018-10-19T05:55:48.589Z,19.62
2018-10-19T05:57:20.126Z,19.71
2018-10-19T05:58:51.896Z,19.69
2018-10-19T06:00:23.266Z,19.63
2018-10-19T06:01:54.913Z,19.66
2018-10-19T06:03:26.439Z,19.65
2018-10-19T06:04:58.179Z,19.66
2018-10-19T06:06:29.560Z,19.62
2018-10-19T06:08:01.194Z,19.66
2018-10-19T06:09:32.705Z,19.69
2018-10-19T06:11:04.364Z,19.65
2018-10-19T06:12:36.358Z,19.76
2018-10-19T06:14:07.752Z,19.69
2018-10-19T06:17:10.620Z,19.66
2018-10-19T06:18:42.147Z,19.65
2018-10-19T06:20:13.807Z,19.71
2018-10-19T06:21:45.291Z,19.63
2018-10-19T06:23:17.106Z,19.81
2018-10-19T06:24:48.440Z,19.83
2018-10-19T06:26:20.042Z,19.63
2018-10-19T06:27:51.584Z,19.69
2018-10-19T06:29:23.159Z,19.66
2018-10-19T06:30:54.732Z,19.68
2018-10-19T06:32:26.306Z,19.65
2018-10-19T06:33:57.879Z,19.63
2018-10-19T06:35:29.464Z,19.65
2018-10-19T06:37:01.066Z,19.69
2018-10-19T06:38:32.602Z,19.66
2018-10-19T06:40:04.215Z,19.80
2018-10-19T06:41:35.890Z,19.69
2018-10-19T06:43:07.340Z,19.69
2018-10-19T06:44:38.891Z,19.61
2018-10-19T06:46:10.503Z,19.69
2018-10-19T06:49:13.753Z,19.74
2018-10-19T06:50:45.212Z,19.66
2018-10-19T06:52:16.766Z,19.68
2018-10-19T06:53:48.340Z,19.65
2018-10-19T06:55:19.909Z,19.63
2018-10-19T06:58:23.057Z,19.73
2018-10-19T06:59:54.624Z,19.68
2018-10-19T07:01:26.297Z,19.78
2018-10-19T07:04:29.343Z,19.76
2018-10-19T07:06:00.928Z,19.69
2018-10-19T07:07:32.527Z,19.66
2018-10-19T07:09:04.067Z,19.63
2018-10-19T07:10:35.639Z,19.69
2018-10-19T07:12:07.267Z,19.50
2018-10-19T07:13:38.786Z,19.59
2018-10-19T07:15:10.428Z,19.66
2018-10-19T07:16:41.976Z,19.66
2018-10-19T07:18:13.552Z,19.61
2018-10-19T07:19:45.190Z,19.44
2018-10-19T07:21:16.657Z,19.76
2018-10-19T07:22:48.237Z,19.59
2018-10-19T07:24:19.808Z,19.56
2018-10-19T07:25:51.376Z,19.55
2018-10-19T07:27:22.949Z,19.56
2018-10-19T07:28:54.564Z,19.50
2018-10-19T07:30:26.097Z,19.54
2018-10-19T07:31:57.720Z,19.48
2018-10-19T07:33:29.244Z,19.54
2018-10-19T07:35:00.871Z,19.51
2018-10-19T07:36:32.491Z,19.56
2018-10-19T07:38:04.102Z,19.44
2018-10-19T07:39:35.566Z,19.44
2018-10-19T07:41:07.107Z,19.54
2018-10-19T07:42:38.675Z,19.54
2018-10-19T07:44:10.300Z,19.55
2018-10-19T07:45:42.022Z,19.61
2018-10-19T07:47:13.508Z,19.68
2018-10-19T07:48:44.969Z,19.58
2018-10-19T07:50:16.617Z,19.73
2018-10-19T07:51:48.115Z,19.56
2018-10-19T07:53:19.687Z,19.74
2018-10-19T07:54:51.260Z,19.55
2018-10-19T07:56:22.934Z,19.54
2018-10-19T07:57:54.405Z,19.51
2018-10-19T07:59:25.976Z,19.63
2018-10-19T08:00:57.584Z,19.58
2018-10-19T08:02:29.122Z,19.61
2018-10-19T08:04:00.695Z,19.51
2018-10-19T08:05:32.269Z,19.66
2018-10-19T08:07:03.841Z,19.55
2018-10-19T08:08:35.414Z,19.54
2018-10-19T08:10:06.987Z,19.46
2018-10-19T08:11:38.630Z,19.46
2018-10-19T08:13:10.134Z,19.50
2018-10-19T08:14:41.808Z,19.59
2018-10-19T08:16:13.281Z,19.56
2018-10-19T08:17:44.856Z,19.56
2018-10-19T08:19:16.425Z,19.54
2018-10-19T08:20:47.997Z,19.56
2018-10-19T08:22:19.574Z,19.58
2018-10-19T08:23:51.143Z,19.56
2018-10-19T08:25:22.717Z,19.62
2018-10-19T08:26:54.290Z,19.54
2018-10-19T08:28:25.863Z,19.61
2018-10-19T08:29:57.438Z,19.58
2018-10-19T08:31:29.009Z,19.58
2018-10-19T08:33:00.995Z,19.55
2018-10-19T08:34:32.250Z,19.43
2018-10-19T08:36:03.812Z,19.46
2018-10-19T08:37:35.385Z,19.58
2018-10-19T08:39:06.905Z,19.55
2018-10-19T08:40:38.449Z,19.47
2018-10-19T08:42:10.059Z,19.58
2018-10-19T08:45:13.231Z,19.55
2018-10-19T08:46:44.825Z,19.55
2018-10-19T08:48:16.394Z,19.55
2018-10-19T08:49:47.938Z,19.54
2018-10-19T08:51:19.801Z,19.54
2018-10-19T08:52:51.579Z,19.55
2018-10-19T08:54:22.632Z,19.50
2018-10-19T08:55:54.245Z,19.63
2018-10-19T08:57:26.019Z,19.48
2018-10-19T08:58:57.369Z,19.69
2018-10-19T09:00:29.121Z,19.61
2018-10-19T09:02:00.474Z,19.54
2018-10-19T09:03:32.310Z,19.66
2018-10-19T09:05:03.682Z,19.63
2018-10-19T09:06:35.427Z,19.65
2018-10-19T09:08:06.766Z,19.71
2018-10-19T09:09:38.440Z,19.76
2018-10-19T09:11:09.921Z,19.80
2018-10-19T09:12:42.257Z,19.78
2018-10-19T09:14:14.093Z,19.87
2018-10-19T09:15:45.507Z,19.84
2018-10-19T09:17:16.545Z,19.86
2018-10-19T09:18:47.854Z,19.80
2018-10-19T09:21:51.867Z,19.92
2018-10-19T09:23:23.264Z,19.84
2018-10-19T09:24:55.682Z,19.95
2018-10-19T09:26:26.982Z,20.02
2018-10-19T09:27:58.594Z,19.92
2018-10-19T09:29:30.391Z,19.92
2018-10-19T09:31:01.171Z,20.06
2018-10-19T09:32:32.528Z,20.02
2018-10-19T09:34:04.166Z,20.10
2018-10-19T09:35:36.211Z,20.06
2018-10-19T09:37:07.791Z,19.99
2018-10-19T09:40:10.075Z,20.03
2018-10-19T09:41:41.740Z,20.18
2018-10-19T09:43:13.185Z,20.18
2018-10-19T09:44:44.772Z,20.13
2018-10-19T09:47:47.833Z,20.17
2018-10-19T09:50:52.143Z,19.99
2018-10-19T09:52:22.443Z,20.03
2018-10-19T09:53:53.995Z,20.14
2018-10-19T09:55:26.074Z,20.14
2018-10-19T09:56:57.564Z,20.29
2018-10-19T09:58:29.351Z,20.28
2018-10-19T10:00:00.327Z,20.29
2018-10-19T10:01:32.298Z,20.28
2018-10-19T10:03:03.698Z,20.28
2018-10-19T10:04:35.036Z,20.35
2018-10-19T10:06:07.330Z,20.47
2018-10-19T10:07:38.458Z,20.59
2018-10-19T10:10:42.007Z,20.47
2018-10-19T10:12:13.179Z,20.41
2018-10-19T10:13:44.866Z,20.33
2018-10-19T10:15:16.182Z,20.29
2018-10-19T10:16:47.663Z,20.35
2018-10-19T10:18:20.161Z,20.38
2018-10-19T10:19:51.994Z,20.33
2018-10-19T10:21:22.668Z,20.38
2018-10-19T10:22:54.198Z,20.39
2018-10-19T10:24:25.911Z,20.59
2018-10-19T10:25:58.215Z,20.69
2018-10-19T10:27:29.479Z,20.82
2018-10-19T10:29:00.640Z,20.94
2018-10-19T10:30:32.116Z,20.92
2018-10-19T10:32:03.622Z,20.89
2018-10-19T10:35:06.578Z,20.52
2018-10-19T10:36:38.378Z,20.41
2018-10-19T10:38:10.113Z,20.42
2018-10-19T10:39:41.677Z,20.43
2018-10-19T10:41:13.032Z,20.32
2018-10-19T10:42:44.672Z,20.43
2018-10-19T10:44:16.703Z,20.24
2018-10-19T10:45:47.965Z,20.38
2018-10-19T10:47:19.146Z,20.55
2018-10-19T10:48:50.905Z,20.73
2018-10-19T10:50:22.682Z,20.74
2018-10-19T10:51:54.534Z,20.70
2018-10-19T10:53:26.064Z,20.88
2018-10-19T10:54:57.362Z,20.99
2018-10-19T10:56:29.067Z,20.82
2018-10-19T10:58:03.336Z,20.72
2018-10-19T10:59:34.723Z,20.67
2018-10-19T11:01:06.360Z,20.98
2018-10-19T11:02:38.529Z,21.06
2018-10-19T11:04:09.654Z,20.99
2018-10-19T11:05:41.426Z,20.97
2018-10-19T11:07:11.776Z,20.91
2018-10-19T11:08:42.990Z,20.80
2018-10-19T11:10:15.239Z,20.85
2018-10-19T11:11:48.388Z,20.97
2018-10-19T11:13:18.664Z,20.97
2018-10-19T11:14:49.490Z,20.87
2018-10-19T11:16:20.404Z,20.99
2018-10-19T11:17:52.348Z,21.14
2018-10-19T11:19:24.255Z,21.32
2018-10-19T11:20:55.355Z,21.31
2018-10-19T11:22:25.945Z,21.06
2018-10-19T11:23:59.499Z,21.22
2018-10-19T11:27:04.498Z,21.24
2018-10-19T11:28:33.304Z,21.37
2018-10-19T11:30:05.500Z,21.43
2018-10-19T11:31:36.788Z,21.42
2018-10-19T11:33:08.032Z,21.25
2018-10-19T11:34:40.760Z,21.13
2018-10-19T11:36:11.700Z,21.27
2018-10-19T11:37:42.666Z,21.24
2018-10-19T11:39:14.788Z,21.12
2018-10-19T11:40:46.694Z,21.09
2018-10-19T11:42:16.849Z,21.32
2018-10-19T11:45:20.580Z,21.42
2018-10-19T11:46:52.157Z,21.47
2018-10-19T11:48:23.702Z,21.43
2018-10-19T11:49:55.276Z,21.24
2018-10-19T11:51:27.550Z,21.32
2018-10-19T11:52:58.450Z,21.25
2018-10-19T11:54:29.601Z,21.40
2018-10-19T11:56:01.569Z,21.49
2018-10-19T11:57:33.908Z,21.34
2018-10-19T11:59:04.908Z,21.44
2018-10-19T12:00:36.862Z,21.46
2018-10-19T12:02:08.013Z,21.49
2018-10-19T12:03:39.476Z,21.49
2018-10-19T12:05:10.804Z,21.77
2018-10-19T12:08:15.883Z,21.91
2018-10-19T12:09:46.934Z,21.50
2018-10-19T12:11:17.024Z,21.46
2018-10-19T12:12:48.441Z,21.40
2018-10-19T12:14:20.995Z,21.34
2018-10-19T12:15:51.581Z,21.38
2018-10-19T12:17:24.370Z,21.37
2018-10-19T12:18:55.347Z,21.35
2018-10-19T12:20:27.813Z,21.44
2018-10-19T12:21:58.339Z,21.28
2018-10-19T12:23:30.378Z,21.40
2018-10-19T12:25:01.569Z,21.47
2018-10-19T12:26:32.892Z,21.49
2018-10-19T12:28:04.222Z,21.40
2018-10-19T12:29:35.927Z,21.44
2018-10-19T12:31:07.733Z,21.58
2018-10-19T12:32:40.030Z,21.62
2018-10-19T12:34:11.895Z,21.74
2018-10-19T12:35:43.240Z,21.69
2018-10-19T12:37:14.101Z,21.77
2018-10-19T12:38:46.080Z,21.59
2018-10-19T12:40:16.075Z,21.56
2018-10-19T12:41:48.225Z,21.42
2018-10-19T12:43:20.130Z,21.40
2018-10-19T12:44:51.740Z,21.35
2018-10-19T12:46:22.980Z,21.43
2018-10-19T12:47:54.433Z,21.46
2018-10-19T12:49:26.166Z,21.67
2018-10-19T12:50:59.411Z,21.96
2018-10-19T12:52:30.094Z,22.02
2018-10-19T12:54:01.479Z,22.02
2018-10-19T12:55:32.763Z,22.14
2018-10-19T12:57:04.210Z,21.99
2018-10-19T13:00:06.248Z,22.03
2018-10-19T13:03:09.657Z,21.83
2018-10-19T13:04:40.983Z,21.82
2018-10-19T13:06:12.581Z,22.00
2018-10-19T13:07:44.191Z,21.83
2018-10-19T13:10:47.569Z,22.22
2018-10-19T13:12:18.829Z,22.35
2018-10-19T13:13:50.511Z,22.47
2018-10-19T13:15:22.592Z,22.60
2018-10-19T13:16:54.065Z,22.43
2018-10-19T13:18:25.515Z,22.36
2018-10-19T13:19:57.091Z,22.35
2018-10-19T13:21:28.405Z,22.31
2018-10-19T13:22:59.941Z,22.28
2018-10-19T13:24:32.150Z,21.99
2018-10-19T13:26:03.529Z,21.98
2018-10-19T13:27:35.423Z,21.74
2018-10-19T13:29:06.571Z,21.90
2018-10-19T13:30:38.897Z,22.10
2018-10-19T13:32:10.038Z,22.18
2018-10-19T13:33:40.957Z,22.21
2018-10-19T13:35:13.029Z,22.18
2018-10-19T13:36:45.342Z,22.36
2018-10-19T13:38:17.680Z,22.31
2018-10-19T13:39:48.723Z,22.06
2018-10-19T13:41:20.202Z,21.84
2018-10-19T13:42:51.987Z,21.83
2018-10-19T13:44:22.840Z,21.90
2018-10-19T13:45:54.714Z,21.92
2018-10-19T13:47:25.531Z,21.82
2018-10-19T13:48:57.472Z,21.98
2018-10-19T13:52:00.162Z,22.39
2018-10-19T13:53:32.276Z,23.01
2018-10-19T13:55:03.221Z,23.42
2018-10-19T13:56:34.750Z,23.39
2018-10-19T13:58:06.709Z,23.05
2018-10-19T13:59:38.234Z,22.80
2018-10-19T14:01:10.142Z,22.30
2018-10-19T14:02:42.299Z,22.49
2018-10-19T14:04:14.266Z,22.47
2018-10-19T14:05:47.150Z,22.86
2018-10-19T14:07:17.828Z,23.15
2018-10-19T14:08:47.615Z,23.33
2018-10-19T14:10:18.843Z,22.76
2018-10-19T14:11:50.561Z,22.57
2018-10-19T14:14:53.802Z,21.91
2018-10-19T14:16:25.207Z,21.90
2018-10-19T14:17:56.943Z,21.91
2018-10-19T14:19:28.957Z,21.77
2018-10-19T14:22:32.235Z,21.71
2018-10-19T14:25:34.615Z,21.90
2018-10-19T14:27:06.285Z,22.14
2018-10-19T14:28:37.966Z,22.35
2018-10-19T14:30:09.563Z,22.79
2018-10-19T14:31:41.210Z,23.32
2018-10-19T14:33:12.770Z,23.66
2018-10-19T14:36:16.034Z,23.10
2018-10-19T14:37:47.235Z,23.07
2018-10-19T14:39:18.872Z,23.27
2018-10-19T14:40:50.735Z,23.50
2018-10-19T14:42:22.368Z,23.16
2018-10-19T14:43:53.755Z,22.79
2018-10-19T14:45:25.333Z,22.61
2018-10-19T14:46:57.376Z,22.30
2018-10-19T14:48:28.948Z,22.28
2018-10-19T14:50:00.283Z,22.22
2018-10-19T14:51:32.641Z,21.86
2018-10-19T14:53:03.630Z,21.99
2018-10-19T14:54:35.566Z,22.17
2018-10-19T14:56:06.465Z,22.12
2018-10-19T14:57:37.966Z,21.90
2018-10-19T14:59:09.463Z,21.72
2018-10-19T15:00:41.812Z,21.77
2018-10-19T15:02:12.478Z,21.91
2018-10-19T15:03:44.182Z,21.79
2018-10-19T15:05:15.727Z,21.72
2018-10-19T15:06:47.565Z,21.50
2018-10-19T15:08:18.836Z,21.43
2018-10-19T15:09:50.680Z,21.42
2018-10-19T15:11:22.729Z,21.47
2018-10-19T15:14:25.113Z,21.69
2018-10-19T15:15:56.988Z,21.79
2018-10-19T15:17:28.244Z,21.44
2018-10-19T15:19:00.352Z,21.44
2018-10-19T15:22:03.562Z,21.59
2018-10-19T15:23:34.576Z,21.43
2018-10-19T15:25:06.319Z,21.40
2018-10-19T15:26:37.675Z,21.21
2018-10-19T15:28:09.454Z,21.14
2018-10-19T15:29:41.045Z,21.07
2018-10-19T15:31:12.563Z,21.10
2018-10-19T15:32:44.203Z,20.97
2018-10-19T15:34:15.675Z,20.99
2018-10-19T15:35:47.445Z,21.07
2018-10-19T15:37:18.815Z,21.09
2018-10-19T15:38:51.141Z,21.22
2018-10-19T15:40:22.514Z,21.28
2018-10-19T15:41:53.456Z,21.35
2018-10-19T15:43:25.244Z,21.46
2018-10-19T15:44:56.822Z,21.44
2018-10-19T15:46:29.402Z,21.40
2018-10-19T15:47:59.860Z,21.43
2018-10-19T15:49:31.398Z,21.24
2018-10-19T15:51:03.035Z,21.14
2018-10-19T15:52:35.320Z,21.06
2018-10-19T15:54:06.310Z,20.95
2018-10-19T15:55:37.955Z,20.95
2018-10-19T15:57:09.532Z,20.91
2018-10-19T16:01:44.780Z,21.16
2018-10-19T16:03:15.948Z,21.50
2018-10-19T16:04:47.468Z,21.34
2018-10-19T16:06:19.005Z,21.37
2018-10-19T16:07:50.920Z,21.34
2018-10-19T16:09:22.139Z,21.43
2018-10-19T16:10:54.047Z,21.62
2018-10-19T16:12:25.424Z,21.46
2018-10-19T16:13:56.796Z,21.42
2018-10-19T16:15:28.776Z,21.44
2018-10-19T16:17:00.339Z,21.50
2018-10-19T16:18:31.880Z,21.50
2018-10-19T16:20:03.855Z,21.58
2018-10-19T16:21:35.911Z,21.43
2018-10-19T16:23:06.078Z,21.16
2018-10-19T16:24:38.858Z,20.95
2018-10-19T16:26:09.532Z,21.01
2018-10-19T16:27:40.888Z,20.92
2018-10-19T16:29:12.482Z,20.98
2018-10-19T16:30:44.141Z,20.99
2018-10-19T16:35:19.473Z,20.89
2018-10-19T16:36:51.145Z,21.14
2018-10-19T16:38:21.928Z,21.07
2018-10-19T16:39:54.553Z,21.12
2018-10-19T16:41:25.011Z,21.14
2018-10-19T16:42:56.837Z,21.14
2018-10-19T16:44:28.401Z,20.98
2018-10-19T16:45:59.684Z,20.97
2018-10-19T16:47:31.348Z,21.07
2018-10-19T16:50:34.973Z,20.80
2018-10-19T16:52:06.212Z,20.80
2018-10-19T16:53:37.725Z,20.70
2018-10-19T16:55:09.165Z,20.73
2018-10-19T16:56:40.808Z,20.64
2018-10-19T16:58:12.352Z,20.73
2018-10-19T16:59:45.475Z,20.70
2018-10-19T17:01:15.611Z,20.67
2018-10-19T17:02:47.097Z,20.70
2018-10-19T17:04:18.954Z,20.87
2018-10-19T17:08:53.708Z,21.03
2018-10-19T17:11:57.481Z,21.31
2018-10-19T17:13:27.968Z,21.29
2018-10-19T17:14:59.620Z,21.47
2018-10-19T17:16:31.522Z,21.38
2018-10-19T17:18:03.038Z,21.34
2018-10-19T17:19:34.293Z,21.27
2018-10-19T17:21:05.877Z,21.09
2018-10-19T17:22:37.678Z,21.14
2018-10-19T17:24:09.024Z,21.12
2018-10-19T17:25:40.758Z,21.22
2018-10-19T17:27:12.723Z,21.28
2018-10-19T17:28:47.269Z,21.13
2018-10-19T17:30:15.893Z,21.13
2018-10-19T17:31:47.625Z,21.09
2018-10-19T17:33:19.849Z,21.04
2018-10-19T17:34:52.882Z,21.03
2018-10-19T17:36:22.579Z,20.87
2018-10-19T17:37:53.852Z,20.72
2018-10-19T17:39:26.722Z,20.73
2018-10-19T17:40:59.266Z,20.77
2018-10-19T17:42:28.405Z,20.89
2018-10-19T17:44:00.725Z,20.98
2018-10-19T17:47:03.160Z,21.31
2018-10-19T17:48:34.361Z,21.47
2018-10-19T17:50:05.747Z,21.43
2018-10-19T17:51:37.318Z,21.28
2018-10-19T17:53:09.023Z,21.27
2018-10-19T17:56:12.622Z,21.40
2018-10-19T17:57:43.675Z,21.10
2018-10-19T18:00:47.201Z,21.14
2018-10-19T18:02:18.383Z,21.35
2018-10-19T18:06:53.114Z,21.09
2018-10-19T18:08:24.765Z,20.95
2018-10-19T18:09:56.548Z,21.10
2018-10-19T18:11:28.110Z,20.92
2018-10-19T18:12:59.387Z,20.97
2018-10-19T18:14:30.943Z,20.70
2018-10-19T18:16:02.628Z,20.73
2018-10-19T18:19:06.808Z,20.94
2018-10-19T18:22:09.049Z,21.46
2018-10-19T18:25:11.966Z,21.47
2018-10-19T18:26:44.333Z,21.64
2018-10-19T18:28:15.645Z,21.31
2018-10-19T18:31:18.267Z,21.40
2018-10-19T18:32:50.148Z,21.21
2018-10-19T18:34:21.419Z,21.24
2018-10-19T18:35:53.198Z,21.21
2018-10-19T18:37:25.199Z,21.16
2018-10-19T18:38:56.351Z,21.10
2018-10-19T18:40:28.023Z,20.91
2018-10-19T18:41:59.294Z,20.70
2018-10-19T18:43:30.869Z,20.70
2018-10-19T18:45:02.646Z,20.54
2018-10-19T18:46:34.022Z,20.51
2018-10-19T18:48:05.595Z,20.52
2018-10-19T18:49:37.180Z,20.43
2018-10-19T18:51:09.045Z,20.39
2018-10-19T18:52:40.318Z,20.42
2018-10-19T18:54:11.888Z,20.36
2018-10-19T18:55:43.765Z,20.31
2018-10-19T18:57:15.113Z,20.23
2018-10-19T18:58:46.609Z,20.16
2018-10-19T19:00:18.183Z,20.16
2018-10-19T19:01:49.758Z,20.20
2018-10-19T19:03:21.337Z,20.21
2018-10-19T19:04:52.927Z,20.18
2018-10-19T19:07:56.091Z,20.35
2018-10-19T19:09:27.623Z,20.21
2018-10-19T19:10:59.450Z,20.29
2018-10-19T19:12:30.972Z,20.41
2018-10-19T19:14:02.499Z,20.29
2018-10-19T19:15:33.922Z,20.36
2018-10-19T19:17:06.038Z,20.39
2018-10-19T19:18:37.079Z,20.62
2018-10-19T19:20:09.014Z,20.72
2018-10-19T19:21:40.337Z,20.97
2018-10-19T19:24:43.362Z,21.10
2018-10-19T19:26:14.962Z,21.06
2018-10-19T19:27:46.816Z,21.19
2018-10-19T19:30:49.667Z,20.87
2018-10-19T19:32:21.540Z,20.72
2018-10-19T19:33:52.810Z,20.61
2018-10-19T19:35:24.385Z,20.36
2018-10-19T19:36:55.959Z,20.33
2018-10-19T19:38:27.535Z,20.48
2018-10-19T19:39:59.478Z,20.42
2018-10-19T19:41:30.932Z,20.51
2018-10-19T19:43:02.579Z,20.42
2018-10-19T19:46:05.408Z,20.43
2018-10-19T19:47:36.979Z,20.41
2018-10-19T19:49:08.635Z,20.42
2018-10-19T19:50:40.338Z,20.38
2018-10-19T19:52:11.806Z,20.43
2018-10-19T19:53:43.275Z,20.41
2018-10-19T19:55:15.054Z,20.58
2018-10-19T19:58:18.102Z,20.43
2018-10-19T19:59:49.577Z,20.32
2018-10-19T20:01:21.145Z,20.29
2018-10-19T20:02:52.721Z,20.21
2018-10-19T20:04:24.293Z,20.18
2018-10-19T20:05:55.866Z,20.17
2018-10-19T20:07:27.747Z,20.06
2018-10-19T20:08:59.216Z,20.13
2018-10-19T20:10:30.687Z,20.10
2018-10-19T20:12:02.176Z,20.02
2018-10-19T20:13:33.937Z,19.95
2018-10-19T20:16:37.196Z,19.96
2018-10-19T20:19:40.028Z,19.81
2018-10-19T20:21:11.600Z,19.87
2018-10-19T20:22:43.174Z,19.78
2018-10-19T20:24:14.747Z,19.83
2018-10-19T20:25:46.319Z,19.71
2018-10-19T20:27:17.948Z,19.65
2018-10-19T20:28:49.608Z,19.73
2018-10-19T20:30:21.037Z,19.66
2018-10-19T20:33:24.444Z,19.50
2018-10-19T20:34:56.016Z,19.46
2018-10-19T20:36:27.327Z,19.46
2018-10-19T20:37:59.845Z,19.33
2018-10-19T20:39:30.675Z,19.31
2018-10-19T20:41:02.654Z,19.32
2018-10-19T20:42:33.616Z,19.31
2018-10-19T20:44:05.213Z,19.28
2018-10-19T20:45:36.761Z,19.28
2018-10-19T20:47:08.511Z,19.29
2018-10-19T20:48:39.907Z,19.32
2018-10-19T20:50:11.622Z,19.25
2018-10-19T20:51:43.377Z,19.18
2018-10-19T20:53:14.652Z,19.06
2018-10-19T20:54:46.194Z,19.16
2018-10-19T20:56:17.869Z,19.00
2018-10-19T20:59:20.911Z,18.76
2018-10-19T21:00:52.605Z,18.81
2018-10-19T21:03:55.927Z,18.65
2018-10-19T21:05:27.295Z,18.70
2018-10-19T21:06:58.765Z,18.70
2018-10-19T21:08:30.342Z,18.54